Time;durP1;ratioP1;P1;durP2;ratioP2;P2;SDS_P1;SDS_P2;PMS_P1;PMS_P2;Temp;Humidity;BMP_temperature;BMP_pressure;BME280_temperature;BME280_humidity;BME280_pressure;Samples;Min_cycle;Max_cycle;Signal;HPM_P1;HPM_P2
2023/07/20 00:00:18;;;;;;;15.97;5.70;;;17.60;99.90;;;;;;5074653;28;20192;-67
2023/07/20 00:02:46;;;;;;;21.60;5.50;;;17.40;99.90;;;;;;5071691;28;20593;-67
2023/07/20 00:05:13;;;;;;;11.83;4.77;;;17.20;99.90;;;;;;5077226;28;20190;-67
2023/07/20 00:07:40;;;;;;;13.20;4.77;;;17.40;99.90;;;;;;5073722;28;20179;-70
2023/07/20 00:10:08;;;;;;;11.50;4.97;;;17.70;99.90;;;;;;5071728;28;20218;-68
2023/07/20 00:12:36;;;;;;;15.77;6.50;;;18.00;99.90;;;;;;5071634;28;20187;-68
2023/07/20 00:15:03;;;;;;;18.63;7.13;;;17.90;99.90;;;;;;5071875;28;20581;-68
2023/07/20 00:17:31;;;;;;;18.17;7.20;;;17.70;99.90;;;;;;5070420;28;20296;-67
2023/07/20 00:19:58;;;;;;;16.90;8.30;;;17.80;99.90;;;;;;5072000;28;20178;-68
2023/07/20 00:22:25;;;;;;;19.57;6.57;;;17.50;99.90;;;;;;5071730;28;20172;-67
2023/07/20 00:24:53;;;;;;;16.17;6.83;;;17.10;99.90;;;;;;5078528;28;20661;-67
2023/07/20 00:27:20;;;;;;;17.40;5.57;;;16.00;99.90;;;;;;5081392;28;20185;-67
2023/07/20 00:29:47;;;;;;;10.97;3.87;;;16.50;99.90;;;;;;5091254;28;20226;-66
2023/07/20 00:32:15;;;;;;;16.33;3.90;;;16.70;99.90;;;;;;5091452;28;20556;-67
2023/07/20 00:34:42;;;;;;;10.70;3.67;;;16.70;99.90;;;;;;5075318;28;20206;-67
2023/07/20 00:37:09;;;;;;;11.10;4.00;;;16.30;99.90;;;;;;5070983;28;20193;-68
2023/07/20 00:39:37;;;;;;;11.17;3.57;;;15.30;99.90;;;;;;5070878;28;20214;-68
2023/07/20 00:42:04;;;;;;;15.73;3.90;;;15.00;99.90;;;;;;5071061;28;20202;-66
2023/07/20 00:44:32;;;;;;;16.40;4.37;;;15.40;99.90;;;;;;5073263;28;20264;-67
2023/07/20 00:46:59;;;;;;;9.10;4.23;;;15.50;99.90;;;;;;5070818;28;20187;-69
2023/07/20 00:49:27;;;;;;;11.20;4.10;;;15.90;99.90;;;;;;5070760;28;20277;-68
2023/07/20 00:51:54;;;;;;;13.97;4.60;;;16.70;99.90;;;;;;5070858;28;20172;-68
2023/07/20 00:54:22;;;;;;;10.77;4.20;;;17.50;99.90;;;;;;5070438;28;20704;-69
2023/07/20 00:56:49;;;;;;;11.87;4.03;;;18.00;99.90;;;;;;5070800;28;20175;-68
2023/07/20 00:59:16;;;;;;;10.40;3.30;;;18.00;99.90;;;;;;5070827;28;20180;-68
2023/07/20 01:01:44;;;;;;;8.60;3.63;;;18.60;99.90;;;;;;5070936;28;20178;-69
2023/07/20 01:04:12;;;;;;;13.73;3.67;;;19.00;99.30;;;;;;5079277;28;20194;-70
2023/07/20 01:06:39;;;;;;;11.30;3.80;;;18.90;98.30;;;;;;5090207;28;20595;-70
2023/07/20 01:09:26;;;;;;;14.13;3.53;;;18.90;95.30;;;;;;5070620;28;20289;-69
2023/07/20 01:12:11;;;;;;;9.60;4.07;;;18.70;96.00;;;;;;5070972;28;20172;-68
2023/07/20 01:14:39;;;;;;;7.73;3.07;;;19.40;91.30;;;;;;5070658;28;20632;-68
2023/07/20 01:17:06;;;;;;;15.37;3.30;;;18.60;87.50;;;;;;5070430;28;20601;-71
2023/07/20 01:19:34;;;;;;;9.83;2.90;;;18.40;91.70;;;;;;5068930;28;20653;-69
2023/07/20 01:22:21;;;;;;;6.77;2.50;;;18.10;90.20;;;;;;5073109;28;20234;-69
2023/07/20 01:24:58;;;;;;;8.07;2.30;;;17.70;92.30;;;;;;5070376;28;20176;-69
2023/07/20 01:27:34;;;;;;;7.47;2.00;;;18.30;90.20;;;;;;5070011;28;20216;-68
2023/07/20 01:30:39;;;;;;;6.37;2.30;;;18.50;84.70;;;;;;5074116;28;20745;-68
2023/07/20 01:33:08;;;;;;;8.57;2.03;;;18.10;83.90;;;;;;5065320;28;20283;-68
2023/07/20 01:35:38;;;;;;;4.37;1.67;;;18.30;82.50;;;;;;5073825;28;20514;-69
2023/07/20 01:38:06;;;;;;;9.10;1.93;;;19.30;82.10;;;;;;5073867;28;20184;-72
2023/07/20 01:40:34;;;;;;;6.27;2.03;;;19.10;72.30;;;;;;5074116;28;20180;-69
2023/07/20 01:43:03;;;;;;;10.43;1.80;;;18.70;74.40;;;;;;5073877;28;20220;-69
2023/07/20 01:45:30;;;;;;;4.70;1.50;;;19.30;76.50;;;;;;5074013;28;20251;-68
2023/07/20 01:47:58;;;;;;;5.53;1.83;;;19.90;76.00;;;;;;5076535;28;20412;-68
2023/07/20 01:50:25;;;;;;;4.53;1.63;;;20.40;64.70;;;;;;5073998;28;20208;-68
2023/07/20 01:52:52;;;;;;;7.93;1.90;;;20.50;61.60;;;;;;5073786;28;20175;-68
2023/07/20 01:55:20;;;;;;;5.33;1.73;;;20.20;58.30;;;;;;5073550;28;20253;-68
2023/07/20 01:57:47;;;;;;;5.33;1.70;;;20.00;59.80;;;;;;5073576;28;20284;-68
2023/07/20 02:00:15;;;;;;;5.67;1.50;;;20.00;57.00;;;;;;5073568;28;20209;-69
2023/07/20 02:02:43;;;;;;;9.70;1.90;;;20.10;56.60;;;;;;5073565;28;20253;-68
2023/07/20 02:05:10;;;;;;;9.40;2.40;;;20.30;55.20;;;;;;5053696;28;20332;-68
2023/07/20 02:07:37;;;;;;;8.37;2.10;;;20.30;53.70;;;;;;5053755;28;20179;-68
2023/07/20 02:10:05;;;;;;;7.40;2.03;;;;;;;;;;5065711;28;20220;-68
2023/07/20 02:12:32;;;;;;;2.30;1.37;;;19.40;54.10;;;;;;5073675;28;20176;-69
2023/07/20 02:14:59;;;;;;;3.70;1.27;;;19.50;55.20;;;;;;5073616;28;20168;-69
2023/07/20 02:17:27;;;;;;;5.07;2.33;;;20.20;54.40;;;;;;5073123;28;20219;-68
2023/07/20 02:20:00;;;;;;;6.87;1.77;;;20.60;53.30;;;;;;5072857;28;20179;-68
2023/07/20 02:22:27;;;;;;;5.23;1.40;;;20.70;47.50;;;;;;5073345;28;20195;-70
2023/07/20 02:24:55;;;;;;;7.27;1.53;;;20.30;47.60;;;;;;5073285;28;20195;-68
2023/07/20 02:27:22;;;;;;;4.07;1.40;;;20.50;48.50;;;;;;5073092;28;20176;-67
2023/07/20 02:29:50;;;;;;;2.40;1.30;;;20.70;46.10;;;;;;5072655;28;20214;-69
2023/07/20 02:32:17;;;;;;;4.57;1.43;;;21.00;44.90;;;;;;5072706;28;20214;-69
2023/07/20 02:34:45;;;;;;;7.90;1.30;;;20.90;41.90;;;;;;5073149;28;20179;-69
2023/07/20 02:37:12;;;;;;;2.77;1.20;;;20.60;44.40;;;;;;5078523;28;20226;-69
2023/07/20 02:39:40;;;;;;;9.13;1.67;;;20.60;38.10;;;;;;5073686;28;20179;-69
2023/07/20 02:42:08;;;;;;;6.30;1.10;;;20.80;40.90;;;;;;5071471;28;20195;-72
2023/07/20 02:44:35;;;;;;;2.40;1.10;;;21.70;40.20;;;;;;5071594;28;20289;-68
2023/07/20 02:47:03;;;;;;;4.40;1.10;;;22.20;49.30;;;;;;5072695;28;20183;-69
2023/07/20 02:49:30;;;;;;;5.23;1.00;;;22.20;32.60;;;;;;5071206;28;20306;-69
2023/07/20 02:51:57;;;;;;;4.83;1.13;;;21.70;32.80;;;;;;5072850;28;20254;-69
2023/07/20 02:54:25;;;;;;;3.40;1.00;;;21.50;30.60;;;;;;5072733;28;20171;-69
2023/07/20 02:56:52;;;;;;;8.03;1.10;;;21.50;29.90;;;;;;5072401;28;20199;-68
2023/07/20 02:59:20;;;;;;;4.23;1.03;;;21.40;39.70;;;;;;5070720;28;20226;-69
2023/07/20 03:01:47;;;;;;;4.27;1.10;;;21.20;38.20;;;;;;5072363;28;20272;-68
2023/07/20 03:04:16;;;;;;;6.90;1.13;;;20.80;36.60;;;;;;5072125;28;20224;-67
2023/07/20 03:06:43;;;;;;;2.97;1.30;;;20.60;37.80;;;;;;5079770;28;20295;-68
2023/07/20 03:09:11;;;;;;;6.73;1.20;;;21.00;39.60;;;;;;5073797;28;20215;-68
2023/07/20 03:11:38;;;;;;;4.80;1.40;;;21.60;42.60;;;;;;5089545;28;20181;-68
2023/07/20 03:14:06;;;;;;;5.53;1.20;;;21.80;43.00;;;;;;5073183;28;20322;-67
2023/07/20 03:16:34;;;;;;;7.70;1.23;;;22.10;40.10;;;;;;5071931;28;20260;-67
2023/07/20 03:19:01;;;;;;;5.73;1.40;;;21.80;27.80;;;;;;5072250;28;20690;-71
2023/07/20 03:21:28;;;;;;;5.40;0.93;;;21.80;30.30;;;;;;5072068;28;20660;-71
2023/07/20 03:23:56;;;;;;;1.77;0.70;;;21.90;29.10;;;;;;5052095;28;20172;-72
2023/07/20 03:26:23;;;;;;;2.70;1.13;;;21.50;28.60;;;;;;5052141;28;20195;-71
2023/07/20 03:28:51;;;;;;;4.50;1.37;;;21.30;28.10;;;;;;5056964;28;20223;-73
2023/07/20 03:31:18;;;;;;;4.27;1.20;;;21.40;29.20;;;;;;5071986;28;20199;-71
2023/07/20 03:33:45;;;;;;;15.97;1.33;;;21.60;28.10;;;;;;5071518;28;20546;-72
2023/07/20 03:36:13;;;;;;;2.03;0.80;;;21.50;29.80;;;;;;5071832;28;20179;-69
2023/07/20 03:38:40;;;;;;;3.13;1.13;;;21.90;27.70;;;;;;5071655;28;20210;-71
2023/07/20 03:41:09;;;;;;;2.00;1.07;;;22.10;27.20;;;;;;5070217;28;20183;-72
2023/07/20 03:43:36;;;;;;;5.03;1.13;;;21.50;26.60;;;;;;5071437;28;20192;-73
2023/07/20 03:46:06;;;;;;;9.23;1.00;;;21.20;26.80;;;;;;5071336;28;20294;-74
2023/07/20 03:48:34;;;;;;;4.13;1.17;;;20.90;28.50;;;;;;5065270;28;20215;-74
2023/07/20 03:51:02;;;;;;;4.20;1.40;;;21.20;26.00;;;;;;5065461;28;20563;-72
2023/07/20 03:53:29;;;;;;;3.10;1.00;;;21.20;26.80;;;;;;5067212;28;20176;-72
2023/07/20 03:55:56;;;;;;;8.47;1.30;;;21.80;26.50;;;;;;5071682;28;20168;-71
2023/07/20 03:58:24;;;;;;;6.67;1.20;;;21.90;25.40;;;;;;5071262;28;20174;-71
2023/07/20 04:00:52;;;;;;;3.40;0.90;;;21.80;27.20;;;;;;5071254;28;20211;-71
2023/07/20 04:03:24;;;;;;;2.07;0.87;;;22.00;25.50;;;;;;5071052;28;20183;-71
2023/07/20 04:05:53;;;;;;;4.13;1.30;;;21.80;26.30;;;;;;5071518;28;20648;-71
2023/07/20 04:08:20;;;;;;;2.90;1.20;;;21.80;26.70;;;;;;5070548;28;20179;-71
2023/07/20 04:10:48;;;;;;;5.83;1.60;;;21.60;27.60;;;;;;5071316;28;20188;-72
2023/07/20 04:13:15;;;;;;;3.60;1.30;;;21.20;27.30;;;;;;5071961;28;20239;-73
2023/07/20 04:15:43;;;;;;;4.57;1.03;;;21.10;28.20;;;;;;5069288;28;20190;-70
2023/07/20 04:18:11;;;;;;;4.27;1.30;;;21.30;26.10;;;;;;5070168;28;20188;-71
2023/07/20 04:20:38;;;;;;;2.53;1.27;;;21.30;27.40;;;;;;5069083;28;20184;-71
2023/07/20 04:23:09;;;;;;;5.93;0.97;;;21.30;27.10;;;;;;5070577;28;20291;-71
2023/07/20 04:25:41;;;;;;;4.83;1.13;;;21.20;28.40;;;;;;5071104;28;20179;-72
2023/07/20 04:28:08;;;;;;;6.43;3.73;;;21.50;25.30;;;;;;5071182;28;20668;-70
2023/07/20 04:30:37;;;;;;;4.53;1.20;;;21.60;26.90;;;;;;5069743;28;20634;-71
2023/07/20 04:33:07;;;;;;;3.83;1.00;;;21.70;26.30;;;;;;5070759;28;20176;-70
2023/07/20 04:35:47;;;;;;;5.20;2.10;;;21.50;26.60;;;;;;5070720;28;20187;-70
2023/07/20 04:38:18;;;;;;;3.57;1.83;;;21.90;26.30;;;;;;5069561;28;20249;-68
2023/07/20 04:40:47;;;;;;;4.97;2.03;;;21.70;27.00;;;;;;5051065;28;21288;-70
2023/07/20 04:43:15;;;;;;;10.83;1.33;;;21.90;26.60;;;;;;5053865;28;20186;-70
2023/07/20 04:45:42;;;;;;;1.87;0.97;;;21.70;27.30;;;;;;5069451;28;20559;-71
2023/07/20 04:48:15;;;;;;;2.43;0.90;;;21.30;25.60;;;;;;5070865;28;20187;-70
2023/07/20 04:50:46;;;;;;;4.67;1.20;;;21.10;26.90;;;;;;5069666;28;20652;-69
2023/07/20 04:53:15;;;;;;;2.80;1.80;;;21.20;27.00;;;;;;5070642;28;20218;-70
2023/07/20 04:55:54;;;;;;;3.63;1.00;;;21.50;26.30;;;;;;5070827;28;20182;-70
2023/07/20 04:58:22;;;;;;;2.20;1.27;;;20.70;25.80;;;;;;5070815;28;20204;-70
2023/07/20 05:00:51;;;;;;;5.37;1.90;;;20.80;27.90;;;;;;5070653;28;20183;-70
2023/07/20 05:03:18;;;;;;;4.53;1.47;;;20.70;26.60;;;;;;5072456;28;20195;-70
2023/07/20 05:05:48;;;;;;;6.77;1.57;;;20.40;26.80;;;;;;5074538;28;20176;-70
2023/07/20 05:08:16;;;;;;;8.40;1.20;;;20.50;28.30;;;;;;5074657;28;20233;-70
2023/07/20 05:10:43;;;;;;;6.67;1.70;;;20.70;27.10;;;;;;5074526;28;20260;-70
2023/07/20 05:13:11;;;;;;;1.53;0.83;;;20.80;27.70;;;;;;5074230;28;20194;-70
2023/07/20 05:15:38;;;;;;;2.27;1.13;;;21.00;28.00;;;;;;5074578;28;20184;-70
2023/07/20 05:18:06;;;;;;;3.60;1.00;;;20.80;28.20;;;;;;5074314;28;20219;-69
2023/07/20 05:20:34;;;;;;;7.73;1.10;;;20.90;29.30;;;;;;5074486;28;20184;-72
2023/07/20 05:23:02;;;;;;;5.23;0.90;;;21.00;28.20;;;;;;5073906;28;20184;-71
2023/07/20 05:25:29;;;;;;;3.50;1.13;;;20.90;28.10;;;;;;5074457;28;20652;-70
2023/07/20 05:27:57;;;;;;;2.73;1.20;;;20.60;28.00;;;;;;5074496;28;20594;-70
2023/07/20 05:30:24;;;;;;;2.53;1.10;;;20.50;28.70;;;;;;5073161;28;20332;-70
2023/07/20 05:32:54;;;;;;;3.73;1.10;;;20.50;27.10;;;;;;5073623;28;20176;-71
2023/07/20 05:35:22;;;;;;;3.47;1.00;;;20.50;27.20;;;;;;5073809;28;20244;-71
2023/07/20 05:37:50;;;;;;;16.37;1.83;;;20.30;27.30;;;;;;5074076;28;20168;-68
2023/07/20 05:40:21;;;;;;;4.17;1.73;;;19.90;27.70;;;;;;5073895;28;20176;-70
2023/07/20 05:42:51;;;;;;;3.13;1.20;;;19.60;28.40;;;;;;5073646;28;20245;-71
2023/07/20 05:45:20;;;;;;;6.20;1.60;;;19.30;26.80;;;;;;5074202;28;20190;-70
2023/07/20 05:47:47;;;;;;;6.73;1.10;;;19.30;28.10;;;;;;5074474;28;20178;-70
2023/07/20 05:50:15;;;;;;;3.83;1.47;;;19.30;27.10;;;;;;5073731;28;20614;-68
2023/07/20 05:52:42;;;;;;;6.67;1.63;;;19.40;26.80;;;;;;5071028;28;21705;-68
2023/07/20 05:55:09;;;;;;;4.27;1.60;;;19.30;26.60;;;;;;5073408;28;20236;-69
2023/07/20 05:57:41;;;;;;;2.97;1.17;;;18.90;27.30;;;;;;5072863;28;20526;-71
2023/07/20 06:00:09;;;;;;;7.20;1.33;;;18.80;27.00;;;;;;5073650;28;20225;-71
2023/07/20 06:02:37;;;;;;;8.70;1.40;;;18.50;27.80;;;;;;5074419;28;20188;-73
2023/07/20 06:05:04;;;;;;;2.83;1.20;;;18.40;28.50;;;;;;5073587;28;20210;-72
2023/07/20 06:07:32;;;;;;;2.43;1.30;;;18.40;27.90;;;;;;5073501;28;20657;-73
2023/07/20 06:09:59;;;;;;;3.93;1.87;;;18.20;29.40;;;;;;5073548;28;20261;-72
2023/07/20 06:12:27;;;;;;;5.60;1.50;;;18.10;29.80;;;;;;5072664;28;20547;-72
2023/07/20 06:14:54;;;;;;;5.20;1.50;;;17.90;31.00;;;;;;5070386;28;20836;-70
2023/07/20 06:17:22;;;;;;;3.00;1.30;;;17.80;32.50;;;;;;5071469;28;20262;-72
2023/07/20 06:19:50;;;;;;;12.70;1.73;;;17.80;33.10;;;;;;5073366;28;20206;-71
2023/07/20 06:22:18;;;;;;;5.63;1.80;;;17.60;34.50;;;;;;5073347;28;20535;-73
2023/07/20 06:24:45;;;;;;;3.60;1.10;;;17.40;36.10;;;;;;5073188;28;20183;-71
2023/07/20 06:27:13;;;;;;;3.40;1.10;;;17.30;35.50;;;;;;5072791;28;20180;-74
2023/07/20 06:29:42;;;;;;;3.60;1.10;;;17.20;35.10;;;;;;5072695;28;20216;-73
2023/07/20 06:32:10;;;;;;;3.47;1.00;;;17.20;35.20;;;;;;5072973;28;20182;-73
2023/07/20 06:34:38;;;;;;;5.60;1.30;;;17.00;37.20;;;;;;5072985;28;20184;-72
2023/07/20 06:37:06;;;;;;;3.97;1.07;;;16.80;38.10;;;;;;5069137;28;20650;-73
2023/07/20 06:39:34;;;;;;;4.57;1.23;;;16.90;39.10;;;;;;5068587;28;20640;-73
2023/07/20 06:42:01;;;;;;;4.50;1.40;;;17.00;39.30;;;;;;5073076;28;20220;-74
2023/07/20 06:44:29;;;;;;;4.10;1.37;;;16.90;39.90;;;;;;5072486;28;20182;-72
2023/07/20 06:46:57;;;;;;;4.10;2.27;;;16.70;41.00;;;;;;5073338;28;20172;-73
2023/07/20 06:49:28;;;;;;;6.40;1.50;;;16.70;42.90;;;;;;5072744;28;20758;-74
2023/07/20 06:51:57;;;;;;;9.13;2.07;;;16.40;47.20;;;;;;5075083;28;20279;-73
2023/07/20 06:54:24;;;;;;;11.50;2.33;;;16.20;49.60;;;;;;5073037;28;20606;-74
2023/07/20 06:56:52;;;;;;;5.07;1.93;;;16.10;49.90;;;;;;5074395;28;20576;-72
2023/07/20 06:59:20;;;;;;;4.70;1.60;;;16.10;55.10;;;;;;5074224;28;20207;-73
2023/07/20 07:01:48;;;;;;;5.83;1.53;;;16.00;57.10;;;;;;5074491;28;20183;-71
2023/07/20 07:04:16;;;;;;;4.33;1.60;;;16.00;59.20;;;;;;5074139;28;20585;-71
2023/07/20 07:06:45;;;;;;;10.70;3.00;;;15.70;67.80;;;;;;5060800;28;20180;-72
2023/07/20 07:09:12;;;;;;;6.60;2.80;;;15.50;72.50;;;;;;5072422;28;20211;-70
2023/07/20 07:11:40;;;;;;;16.37;6.00;;;15.20;77.20;;;;;;5074248;28;20188;-72
2023/07/20 07:14:08;;;;;;;11.37;3.83;;;15.00;89.40;;;;;;5074006;28;20179;-69
2023/07/20 07:16:36;;;;;;;5.97;3.40;;;15.00;91.40;;;;;;5073365;28;20564;-70
2023/07/20 07:19:05;;;;;;;7.80;2.23;;;15.00;88.60;;;;;;5075937;28;20189;-69
2023/07/20 07:21:33;;;;;;;6.53;2.27;;;15.10;79.90;;;;;;5075239;28;20598;-69
2023/07/20 07:24:01;;;;;;;8.60;3.70;;;15.40;77.40;;;;;;5072304;28;20193;-68
2023/07/20 07:26:28;;;;;;;14.63;3.53;;;15.30;80.30;;;;;;5073823;28;20808;-69
2023/07/20 07:28:56;;;;;;;6.80;3.23;;;15.10;82.20;;;;;;5072094;28;20525;-68
2023/07/20 07:31:25;;;;;;;7.90;4.23;;;15.10;82.40;;;;;;5073280;28;20176;-68
2023/07/20 07:33:53;;;;;;;9.50;4.20;;;14.80;90.20;;;;;;5073875;28;20513;-69
2023/07/20 07:36:21;;;;;;;11.83;3.43;;;14.40;93.10;;;;;;5072356;28;20187;-68
2023/07/20 07:38:49;;;;;;;7.93;2.80;;;14.10;97.30;;;;;;5072543;28;20187;-69
2023/07/20 07:41:17;;;;;;;3.63;2.40;;;13.90;99.30;;;;;;5073905;28;20549;-70
2023/07/20 07:43:44;;;;;;;6.77;2.80;;;13.80;99.90;;;;;;5073817;28;20179;-69
2023/07/20 07:46:13;;;;;;;6.37;3.03;;;13.90;99.90;;;;;;5073912;28;20213;-68
2023/07/20 07:48:42;;;;;;;12.13;4.13;;;13.60;99.90;;;;;;5073624;28;20184;-68
2023/07/20 07:51:10;;;;;;;10.77;5.80;;;13.40;99.90;;;;;;5073904;28;20232;-69
2023/07/20 07:53:39;;;;;;;9.10;4.10;;;13.10;99.90;;;;;;5072272;28;20190;-70
2023/07/20 07:56:11;;;;;;;12.90;5.53;;;12.90;99.90;;;;;;5073616;28;20169;-69
2023/07/20 07:58:39;;;;;;;8.33;4.27;;;12.80;99.90;;;;;;5073650;28;20244;-69
2023/07/20 08:01:09;;;;;;;12.60;4.80;;;12.70;99.90;;;;;;5073668;28;20183;-69
2023/07/20 08:03:37;;;;;;;11.80;6.33;;;12.60;99.90;;;;;;5073721;28;20225;-69
2023/07/20 08:06:05;;;;;;;16.10;6.13;;;12.40;99.90;;;;;;5072199;28;20732;-69
2023/07/20 08:08:33;;;;;;;12.60;6.20;;;12.30;99.90;;;;;;5073456;28;20182;-69
2023/07/20 08:11:01;;;;;;;10.20;5.50;;;12.20;99.90;;;;;;5073534;28;20186;-68
2023/07/20 08:13:29;;;;;;;11.87;5.70;;;12.00;99.90;;;;;;5073331;28;20181;-68
2023/07/20 08:15:56;;;;;;;9.90;5.30;;;11.90;99.90;;;;;;5073051;28;20718;-68
2023/07/20 08:18:24;;;;;;;15.90;5.03;;;11.80;99.90;;;;;;5073221;28;20566;-68
2023/07/20 08:20:52;;;;;;;8.33;4.93;;;11.70;99.90;;;;;;5073543;28;20180;-68
2023/07/20 08:23:21;;;;;;;11.70;4.17;;;11.70;99.90;;;;;;5073233;28;20175;-69
2023/07/20 08:25:49;;;;;;;10.47;4.00;;;11.60;99.90;;;;;;5073467;28;20181;-69
2023/07/20 08:28:17;;;;;;;16.13;4.93;;;11.60;99.90;;;;;;5073425;28;20178;-67
2023/07/20 08:30:47;;;;;;;8.63;4.17;;;11.60;99.90;;;;;;5073146;28;20389;-68
2023/07/20 08:33:18;;;;;;;12.17;7.50;;;11.40;99.90;;;;;;5073102;28;20635;-69
2023/07/20 08:35:45;;;;;;;9.77;5.27;;;11.30;99.90;;;;;;5073188;28;20186;-68
2023/07/20 08:38:13;;;;;;;13.93;4.53;;;11.20;99.90;;;;;;5072472;28;20183;-68
2023/07/20 08:40:43;;;;;;;10.10;4.63;;;11.20;99.90;;;;;;5073104;28;20261;-69
2023/07/20 08:43:18;;;;;;;12.00;4.77;;;11.20;99.90;;;;;;5073269;28;20217;-68
2023/07/20 08:45:47;;;;;;;9.53;4.17;;;11.10;99.90;;;;;;5071788;28;20182;-67
2023/07/20 08:48:16;;;;;;;11.30;5.93;;;11.10;99.90;;;;;;5073107;28;20268;-68
2023/07/20 08:50:46;;;;;;;8.83;4.63;;;11.00;99.90;;;;;;5073018;28;20211;-67
2023/07/20 08:53:14;;;;;;;14.57;5.70;;;10.90;99.90;;;;;;5072915;28;20174;-68
2023/07/20 08:55:49;;;;;;;13.00;4.90;;;10.90;99.90;;;;;;5072765;28;20239;-69
2023/07/20 08:58:17;;;;;;;12.13;6.87;;;10.80;99.90;;;;;;5072973;28;20215;-68
2023/07/20 09:00:46;;;;;;;12.60;5.67;;;10.80;99.90;;;;;;5072939;28;20253;-68
2023/07/20 09:03:14;;;;;;;13.63;5.70;;;10.80;99.90;;;;;;5072776;28;20635;-68
2023/07/20 09:05:42;;;;;;;21.13;8.47;;;10.60;99.90;;;;;;5073087;28;20316;-67
2023/07/20 09:08:10;;;;;;;33.33;15.50;;;10.40;99.90;;;;;;5073071;28;20187;-68
2023/07/20 09:10:38;;;;;;;24.83;12.70;;;10.20;99.90;;;;;;5072791;28;20279;-69
2023/07/20 09:13:06;;;;;;;20.90;11.97;;;10.20;99.90;;;;;;5072590;28;20210;-68
2023/07/20 09:15:34;;;;;;;19.43;10.33;;;10.10;99.90;;;;;;5072882;28;20244;-69
2023/07/20 09:18:03;;;;;;;18.90;10.03;;;10.00;99.90;;;;;;5071091;28;20746;-68
2023/07/20 09:20:34;;;;;;;12.77;7.27;;;9.90;99.90;;;;;;5072818;28;20226;-68
2023/07/20 09:23:08;;;;;;;13.80;5.90;;;9.70;99.90;;;;;;5072609;28;20181;-68
2023/07/20 09:25:37;;;;;;;13.07;6.37;;;9.70;99.90;;;;;;5072948;28;20316;-69
2023/07/20 09:28:05;;;;;;;12.73;6.07;;;9.70;99.90;;;;;;5072676;28;20181;-68
2023/07/20 09:30:33;;;;;;;12.83;6.80;;;9.60;99.90;;;;;;5071268;28;20277;-68
2023/07/20 09:33:01;;;;;;;9.90;5.27;;;9.50;99.90;;;;;;5072345;28;20701;-69
2023/07/20 09:35:29;;;;;;;10.43;4.80;;;9.40;99.90;;;;;;5072513;28;20345;-68
2023/07/20 09:38:00;;;;;;;12.87;5.17;;;9.30;99.90;;;;;;5072332;28;20185;-68
2023/07/20 09:40:29;;;;;;;11.27;4.73;;;9.30;99.90;;;;;;5072537;28;20684;-69
2023/07/20 09:43:00;;;;;;;11.43;5.17;;;9.20;99.90;;;;;;5072439;28;20718;-68
2023/07/20 09:45:36;;;;;;;10.93;5.53;;;9.20;99.90;;;;;;5072550;28;20191;-68
2023/07/20 09:48:08;;;;;;;17.53;6.70;;;9.40;99.90;;;;;;5072640;28;20638;-69
2023/07/20 09:50:44;;;;;;;12.27;7.20;;;9.50;99.90;;;;;;5075530;28;20272;-67
2023/07/20 09:53:17;;;;;;;16.60;5.60;;;9.60;99.90;;;;;;5076146;28;20227;-67
2023/07/20 09:55:49;;;;;;;9.70;4.40;;;9.90;99.90;;;;;;5075958;28;20630;-68
2023/07/20 09:58:18;;;;;;;10.13;3.80;;;10.30;99.90;;;;;;5075832;28;20177;-69
2023/07/20 10:00:50;;;;;;;7.67;3.27;;;10.50;99.90;;;;;;5075894;28;20176;-67
2023/07/20 10:03:22;;;;;;;5.03;3.10;;;10.70;99.90;;;;;;5076128;28;20188;-68
2023/07/20 10:06:08;;;;;;;6.40;3.47;;;11.00;99.90;;;;;;5075878;28;20182;-68
2023/07/20 10:08:42;;;;;;;4.80;3.07;;;11.20;99.90;;;;;;5074597;28;20265;-68
2023/07/20 10:11:12;;;;;;;7.87;3.27;;;11.30;99.90;;;;;;5075679;28;20633;-67
2023/07/20 10:13:41;;;;;;;9.70;2.93;;;11.30;99.90;;;;;;5075578;28;20651;-67
2023/07/20 10:16:18;;;;;;;7.10;2.93;;;11.30;99.90;;;;;;5074375;28;20705;-68
2023/07/20 10:19:07;;;;;;;4.37;2.83;;;11.20;99.90;;;;;;5077995;28;20210;-68
2023/07/20 10:21:44;;;;;;;6.30;3.67;;;11.20;99.90;;;;;;5075768;28;20180;-69
2023/07/20 10:24:13;;;;;;;6.40;4.23;;;11.20;99.90;;;;;;5077085;28;20173;-67
2023/07/20 10:26:41;;;;;;;6.93;4.60;;;11.20;99.90;;;;;;5092241;28;20173;-68
2023/07/20 10:29:09;;;;;;;7.83;4.53;;;11.10;99.90;;;;;;5090986;28;20212;-67
2023/07/20 10:31:38;;;;;;;9.20;4.23;;;11.20;99.90;;;;;;5088584;28;20235;-70
2023/07/20 10:34:12;;;;;;;10.97;3.70;;;11.20;99.90;;;;;;5074957;28;20263;-70
2023/07/20 10:36:52;;;;;;;5.50;3.30;;;11.10;99.90;;;;;;5073286;28;20307;-68
2023/07/20 10:39:27;;;;;;;6.77;3.50;;;11.20;99.90;;;;;;5074683;28;20246;-68
2023/07/20 10:42:03;;;;;;;5.57;3.87;;;11.20;99.90;;;;;;5074560;28;20168;-67
2023/07/20 10:44:31;;;;;;;8.17;3.40;;;11.00;99.90;;;;;;5073083;28;20175;-69
2023/07/20 10:47:11;;;;;;;8.63;3.77;;;10.80;99.90;;;;;;5074395;28;20184;-68
2023/07/20 10:50:01;;;;;;;10.37;4.10;;;10.60;99.90;;;;;;5074576;28;20216;-69
2023/07/20 10:52:38;;;;;;;8.03;3.20;;;10.30;99.90;;;;;;5074394;28;20181;-69
2023/07/20 10:55:16;;;;;;;7.10;3.17;;;10.10;99.90;;;;;;5074244;28;20174;-68
2023/07/20 10:58:03;;;;;;;6.93;3.23;;;9.90;99.90;;;;;;5074406;28;20182;-68
2023/07/20 11:00:31;;;;;;;5.83;3.37;;;9.80;99.90;;;;;;5073627;28;20172;-68
2023/07/20 11:03:00;;;;;;;6.93;3.50;;;9.80;99.90;;;;;;5088000;28;20538;-68
2023/07/20 11:05:42;;;;;;;7.23;3.90;;;9.60;99.90;;;;;;5094590;28;20176;-68
2023/07/20 11:08:13;;;;;;;11.43;3.57;;;9.50;99.90;;;;;;5094576;28;20199;-69
2023/07/20 11:10:41;;;;;;;10.13;3.97;;;9.60;99.90;;;;;;5094527;28;20215;-69
2023/07/20 11:13:23;;;;;;;5.43;3.20;;;9.50;99.90;;;;;;5094346;28;20689;-70
2023/07/20 11:16:00;;;;;;;6.53;3.50;;;9.50;99.90;;;;;;5094047;28;20276;-69
2023/07/20 11:18:28;;;;;;;9.90;3.90;;;9.30;99.90;;;;;;5094352;28;20184;-69
2023/07/20 11:20:56;;;;;;;8.57;4.00;;;9.30;99.90;;;;;;5094242;28;20184;-69
2023/07/20 11:23:24;;;;;;;9.63;3.97;;;9.20;99.90;;;;;;5093713;28;20240;-69
2023/07/20 11:25:51;;;;;;;5.50;3.30;;;9.40;99.90;;;;;;5094163;28;20177;-68
2023/07/20 11:28:19;;;;;;;6.17;3.60;;;9.30;99.90;;;;;;5094049;28;20309;-69
2023/07/20 11:30:53;;;;;;;6.83;4.10;;;9.10;99.90;;;;;;5092368;28;20256;-69
2023/07/20 11:33:21;;;;;;;7.33;3.70;;;8.90;99.90;;;;;;5094093;28;20226;-70
2023/07/20 11:35:53;;;;;;;6.20;3.63;;;8.80;99.90;;;;;;5092434;28;20184;-69
2023/07/20 11:38:21;;;;;;;11.17;3.47;;;8.70;99.90;;;;;;5092202;28;20180;-69
2023/07/20 11:40:50;;;;;;;7.17;3.63;;;8.60;99.90;;;;;;5093779;28;20526;-69
2023/07/20 11:43:20;;;;;;;12.43;4.20;;;8.60;99.90;;;;;;5093676;28;20263;-70
2023/07/20 11:45:48;;;;;;;6.77;3.73;;;8.40;99.90;;;;;;5093861;28;20179;-69
2023/07/20 11:48:18;;;;;;;6.17;3.97;;;8.40;99.90;;;;;;5091995;28;20249;-69
2023/07/20 11:50:46;;;;;;;8.20;4.00;;;8.30;99.90;;;;;;5093514;28;20207;-69
2023/07/20 11:53:15;;;;;;;11.67;4.20;;;8.30;99.90;;;;;;5093502;28;20271;-69
2023/07/20 11:55:43;;;;;;;8.60;3.80;;;8.20;99.90;;;;;;5092545;28;20258;-70
2023/07/20 11:58:11;;;;;;;6.83;3.90;;;8.10;99.90;;;;;;5093152;28;20168;-69
2023/07/20 12:00:43;;;;;;;4.80;3.47;;;8.10;99.90;;;;;;5093669;28;20203;-70
2023/07/20 12:03:12;;;;;;;9.83;4.70;;;8.10;99.90;;;;;;5093121;28;20172;-69
2023/07/20 12:05:40;;;;;;;8.63;4.67;;;8.20;99.90;;;;;;5093529;28;20178;-69
2023/07/20 12:08:09;;;;;;;9.83;4.20;;;8.20;99.90;;;;;;5093304;28;20172;-69
2023/07/20 12:10:44;;;;;;;11.23;5.20;;;8.10;99.90;;;;;;5080255;28;20218;-69
2023/07/20 12:13:12;;;;;;;7.80;4.63;;;8.10;99.90;;;;;;5065587;28;20648;-69
2023/07/20 12:15:40;;;;;;;8.37;4.50;;;8.10;99.90;;;;;;5083927;28;20183;-69
2023/07/20 12:18:08;;;;;;;8.20;5.20;;;8.00;99.90;;;;;;5075738;28;20231;-69
2023/07/20 12:20:37;;;;;;;13.17;6.40;;;7.90;99.90;;;;;;5072271;28;20647;-69
2023/07/20 12:23:13;;;;;;;11.57;5.03;;;7.80;99.90;;;;;;5071308;28;20178;-68
2023/07/20 12:25:43;;;;;;;8.63;5.33;;;7.80;99.90;;;;;;5072520;28;20177;-68
2023/07/20 12:28:13;;;;;;;8.33;5.23;;;7.80;99.90;;;;;;5074836;28;20251;-68
2023/07/20 12:30:44;;;;;;;10.33;5.20;;;7.70;99.90;;;;;;5081210;28;20216;-68
2023/07/20 12:33:15;;;;;;;9.63;4.80;;;7.60;99.90;;;;;;5061559;28;20207;-68
2023/07/20 12:35:45;;;;;;;9.57;5.43;;;7.50;99.90;;;;;;5071043;28;20183;-68
2023/07/20 12:38:13;;;;;;;10.63;5.23;;;7.50;99.90;;;;;;5072177;28;20185;-68
2023/07/20 12:40:41;;;;;;;10.80;5.40;;;7.40;99.90;;;;;;5072499;28;20664;-69
2023/07/20 12:43:09;;;;;;;11.30;6.10;;;7.30;99.90;;;;;;5072592;28;20184;-68
2023/07/20 12:45:37;;;;;;;12.47;5.73;;;7.20;99.90;;;;;;5072075;28;20181;-68
2023/07/20 12:48:05;;;;;;;10.00;5.30;;;7.20;99.90;;;;;;5072561;28;20172;-68
2023/07/20 12:50:33;;;;;;;13.07;5.77;;;7.20;99.90;;;;;;5052405;28;20224;-68
2023/07/20 12:53:03;;;;;;;15.73;8.03;;;7.10;99.90;;;;;;5070380;28;20188;-68
2023/07/20 12:55:31;;;;;;;15.67;8.37;;;7.10;99.90;;;;;;5072312;28;20175;-68